createdAt,value
2017-12-29T18:00:54.545Z,81.28
2017-12-29T18:03:20.669Z,80.76
2017-12-29T18:05:46.756Z,81.08
2017-12-29T18:08:12.793Z,81.74
2017-12-29T18:10:38.766Z,80.57
2017-12-29T18:13:04.846Z,81.32
2017-12-29T18:15:30.958Z,81.40
2017-12-29T18:17:57.237Z,80.83
2017-12-29T18:20:23.321Z,80.59
2017-12-29T18:22:49.343Z,80.40
2017-12-29T18:25:15.414Z,80.83
2017-12-29T18:27:41.502Z,81.56
2017-12-29T18:30:07.609Z,80.23
2017-12-29T18:32:33.913Z,79.85
2017-12-29T18:35:00.042Z,79.00
2017-12-29T18:37:26.174Z,79.66
2017-12-29T18:39:52.201Z,80.03
2017-12-29T18:42:18.382Z,80.40
2017-12-29T18:44:44.447Z,79.86
2017-12-29T18:47:10.614Z,79.58
2017-12-29T18:49:36.765Z,80.00
2017-12-29T18:52:02.825Z,80.23
2017-12-29T18:54:28.907Z,78.93
2017-12-29T18:56:54.945Z,79.14
2017-12-29T18:59:21.049Z,78.82
2017-12-29T19:01:47.071Z,78.92
2017-12-29T19:04:13.169Z,78.72
2017-12-29T19:06:39.231Z,78.85
2017-12-29T19:09:05.254Z,78.07
2017-12-29T19:11:31.295Z,78.15
2017-12-29T19:13:57.317Z,77.60
2017-12-29T19:16:23.362Z,78.10
2017-12-29T19:18:49.385Z,77.99
2017-12-29T19:21:15.666Z,77.55
2017-12-29T19:23:42.061Z,77.70
2017-12-29T19:26:08.093Z,79.03
2017-12-29T19:28:34.131Z,79.79
2017-12-29T19:31:00.186Z,80.61
2017-12-29T19:33:26.267Z,81.29
2017-12-29T19:35:52.335Z,81.50
2017-12-29T19:38:18.425Z,81.75
2017-12-29T19:40:44.472Z,81.86
2017-12-29T19:43:10.531Z,82.00
2017-12-29T19:45:36.605Z,82.16
2017-12-29T19:48:02.635Z,81.49
2017-12-29T19:50:28.707Z,82.02
2017-12-29T19:52:54.831Z,81.22
2017-12-29T19:55:20.894Z,81.23
2017-12-29T19:57:46.974Z,81.04
2017-12-29T20:00:13.125Z,80.94
2017-12-29T20:02:39.226Z,80.61
2017-12-29T20:05:05.262Z,79.94
2017-12-29T20:07:31.305Z,79.34
2017-12-29T20:09:57.732Z,78.49
2017-12-29T20:12:23.753Z,77.54
2017-12-29T20:14:49.822Z,77.28
2017-12-29T20:17:15.930Z,77.39
2017-12-29T20:19:42.011Z,76.37
2017-12-29T20:22:08.073Z,74.08
2017-12-29T20:24:34.237Z,74.30
2017-12-29T20:27:00.475Z,75.34
2017-12-29T20:29:26.581Z,76.00
2017-12-29T20:31:53.002Z,77.29
2017-12-29T20:34:19.080Z,77.67
2017-12-29T20:36:45.202Z,79.09
2017-12-29T20:39:11.244Z,80.29
2017-12-29T20:41:37.282Z,80.71
2017-12-29T20:44:03.351Z,81.08
2017-12-29T20:46:29.389Z,81.82
2017-12-29T20:48:55.442Z,81.85
2017-12-29T20:51:21.466Z,82.75
2017-12-29T20:53:47.577Z,82.82
2017-12-29T20:56:13.740Z,83.27
2017-12-29T20:58:39.920Z,83.78
2017-12-29T21:01:06.059Z,84.00
2017-12-29T21:03:32.137Z,84.51
2017-12-29T21:05:58.332Z,84.26
2017-12-29T21:08:24.412Z,84.76
2017-12-29T21:10:50.459Z,84.66
2017-12-29T21:13:16.541Z,84.64
2017-12-29T21:15:42.566Z,85.22
2017-12-29T21:18:08.694Z,85.05
2017-12-29T21:20:34.760Z,84.93
2017-12-29T21:23:01.256Z,85.31
2017-12-29T21:25:27.338Z,85.51
2017-12-29T21:27:53.367Z,85.50
2017-12-29T21:30:19.409Z,85.63
2017-12-29T21:32:45.457Z,85.76
2017-12-29T21:35:11.544Z,86.03
2017-12-29T21:37:37.573Z,85.91
2017-12-29T21:40:03.566Z,85.92
2017-12-29T21:42:29.601Z,86.53
2017-12-29T21:44:55.720Z,87.06
2017-12-29T21:47:21.760Z,87.26
2017-12-29T21:49:47.841Z,87.22
2017-12-29T21:52:13.951Z,87.13
2017-12-29T21:54:40.126Z,87.67
2017-12-29T21:57:06.299Z,87.92
2017-12-29T21:59:32.463Z,88.04
2017-12-29T22:01:58.515Z,88.39
2017-12-29T22:04:24.575Z,88.77
2017-12-29T22:06:50.677Z,88.66
2017-12-29T22:09:16.761Z,88.91
2017-12-29T22:11:42.852Z,89.70
2017-12-29T22:14:09.030Z,90.29
2017-12-29T22:16:35.137Z,90.30
2017-12-29T22:19:01.191Z,90.28
2017-12-29T22:21:27.251Z,90.22
2017-12-29T22:23:53.342Z,90.46
2017-12-29T22:26:19.380Z,90.82
2017-12-29T22:28:45.445Z,91.05
2017-12-29T22:31:11.526Z,90.70
2017-12-29T22:33:37.595Z,90.55
2017-12-29T22:36:04.403Z,90.96
2017-12-29T22:38:31.322Z,91.16
2017-12-29T22:40:58.204Z,90.76
2017-12-29T22:43:25.000Z,91.24
2017-12-29T22:45:51.051Z,91.44
2017-12-29T22:48:17.100Z,91.67
2017-12-29T22:50:43.191Z,91.40
2017-12-29T22:53:09.217Z,91.72
2017-12-29T22:55:35.231Z,91.54
2017-12-29T22:58:01.314Z,91.65
2017-12-29T23:00:27.385Z,91.74
2017-12-29T23:02:53.541Z,92.04
2017-12-29T23:05:19.539Z,91.90
2017-12-29T23:07:45.581Z,91.72
2017-12-29T23:10:11.682Z,91.76
2017-12-29T23:12:37.721Z,91.45
2017-12-29T23:15:03.762Z,91.30
2017-12-29T23:17:29.801Z,91.52
2017-12-29T23:19:55.847Z,91.11
2017-12-29T23:22:21.926Z,91.17
2017-12-29T23:24:48.043Z,91.18
2017-12-29T23:27:14.196Z,91.59
2017-12-29T23:29:40.225Z,91.54
2017-12-29T23:32:06.318Z,91.44
2017-12-29T23:34:32.599Z,91.10
2017-12-29T23:36:58.659Z,91.13
2017-12-29T23:39:24.722Z,91.42
2017-12-29T23:41:50.773Z,91.77
2017-12-29T23:44:16.867Z,92.14
2017-12-29T23:46:42.921Z,92.19
2017-12-29T23:49:08.972Z,91.78
2017-12-29T23:51:35.032Z,91.69
2017-12-29T23:54:01.059Z,91.99
2017-12-29T23:56:27.104Z,92.11
2017-12-29T23:58:53.201Z,92.13
